sensor_id;sensor_type;location;lat;lon;timestamp;pressure;altitude;pressure_sealevel;temperature;humidity
37710;BME280;60223;34.854;-92.408;2023-11-19T00:01:56;100691.52;;;27.06;27.60
37710;BME280;60223;34.854;-92.408;2023-11-19T00:18:48;100682.62;;;27.20;27.53
37710;BME280;60223;34.854;-92.408;2023-11-19T00:21:13;100688.92;;;27.19;27.26
37710;BME280;60223;34.854;-92.408;2023-11-19T00:26:08;100695.15;;;26.64;27.55
37710;BME280;60223;34.854;-92.408;2023-11-19T00:28:32;100698.84;;;27.18;27.48
37710;BME280;60223;34.854;-92.408;2023-11-19T00:30:58;100702.32;;;26.98;27.45
37710;BME280;60223;34.854;-92.408;2023-11-19T00:33:25;100708.07;;;26.88;27.54
37710;BME280;60223;34.854;-92.408;2023-11-19T00:35:52;100716.57;;;27.10;27.58
37710;BME280;60223;34.854;-92.408;2023-11-19T00:38:15;100712.83;;;27.05;27.67
37710;BME280;60223;34.854;-92.408;2023-11-19T00:40:41;100707.35;;;27.10;27.57
37710;BME280;60223;34.854;-92.408;2023-11-19T00:43:06;100708.65;;;26.83;27.61
37710;BME280;60223;34.854;-92.408;2023-11-19T00:45:32;100703.45;;;26.71;27.77
37710;BME280;60223;34.854;-92.408;2023-11-19T00:47:58;100696.37;;;26.46;28.10
37710;BME280;60223;34.854;-92.408;2023-11-19T00:50:23;100693.83;;;26.55;28.09
37710;BME280;60223;34.854;-92.408;2023-11-19T00:52:49;100690.05;;;26.63;28.04
37710;BME280;60223;34.854;-92.408;2023-11-19T00:55:15;100681.21;;;26.24;28.46
37710;BME280;60223;34.854;-92.408;2023-11-19T00:57:37;100681.12;;;26.37;28.39
37710;BME280;60223;34.854;-92.408;2023-11-19T01:00:06;100680.09;;;26.05;28.50
37710;BME280;60223;34.854;-92.408;2023-11-19T01:02:31;100685.63;;;26.04;28.61
37710;BME280;60223;34.854;-92.408;2023-11-19T01:04:56;100685.62;;;25.88;28.75
37710;BME280;60223;34.854;-92.408;2023-11-19T01:07:31;100689.60;;;26.09;28.77
37710;BME280;60223;34.854;-92.408;2023-11-19T01:09:52;100689.71;;;26.45;28.70
37710;BME280;60223;34.854;-92.408;2023-11-19T01:12:13;100683.97;;;26.31;28.85
37710;BME280;60223;34.854;-92.408;2023-11-19T01:14:48;100681.87;;;26.31;28.80
37710;BME280;60223;34.854;-92.408;2023-11-19T01:17:06;100679.28;;;25.89;28.79
37710;BME280;60223;34.854;-92.408;2023-11-19T01:19:55;100681.61;;;26.50;28.72
37710;BME280;60223;34.854;-92.408;2023-11-19T01:21:56;100684.35;;;26.51;28.68
37710;BME280;60223;34.854;-92.408;2023-11-19T01:24:22;100686.35;;;26.30;28.60
37710;BME280;60223;34.854;-92.408;2023-11-19T01:26:49;100689.28;;;26.37;28.74
37710;BME280;60223;34.854;-92.408;2023-11-19T01:29:15;100690.74;;;26.35;28.58
37710;BME280;60223;34.854;-92.408;2023-11-19T01:31:45;100689.72;;;26.32;28.62
37710;BME280;60223;34.854;-92.408;2023-11-19T01:34:08;100692.38;;;26.63;28.56
37710;BME280;60223;34.854;-92.408;2023-11-19T01:36:32;100688.90;;;26.53;28.62
37710;BME280;60223;34.854;-92.408;2023-11-19T01:38:58;100693.53;;;26.45;28.48
37710;BME280;60223;34.854;-92.408;2023-11-19T01:41:22;100693.61;;;26.15;28.52
37710;BME280;60223;34.854;-92.408;2023-11-19T01:43:49;100694.91;;;26.72;28.41
37710;BME280;60223;34.854;-92.408;2023-11-19T01:46:14;100697.77;;;26.31;28.34
37710;BME280;60223;34.854;-92.408;2023-11-19T01:48:40;100697.36;;;26.55;28.35
37710;BME280;60223;34.854;-92.408;2023-11-19T01:51:05;100692.96;;;26.47;28.42
37710;BME280;60223;34.854;-92.408;2023-11-19T01:53:31;100695.72;;;26.66;28.22
37710;BME280;60223;34.854;-92.408;2023-11-19T01:55:57;100691.15;;;26.93;27.95
37710;BME280;60223;34.854;-92.408;2023-11-19T01:58:23;100691.15;;;26.99;27.89
37710;BME280;60223;34.854;-92.408;2023-11-19T02:00:57;100692.09;;;26.68;27.92
37710;BME280;60223;34.854;-92.408;2023-11-19T02:03:14;100691.73;;;27.15;27.68
37710;BME280;60223;34.854;-92.408;2023-11-19T02:05:39;100694.57;;;27.27;27.34
37710;BME280;60223;34.854;-92.408;2023-11-19T02:08:04;100694.83;;;27.32;27.70
37710;BME280;60223;34.854;-92.408;2023-11-19T02:10:30;100695.43;;;27.32;27.66
37710;BME280;60223;34.854;-92.408;2023-11-19T02:12:57;100694.47;;;27.67;27.26
37710;BME280;60223;34.854;-92.408;2023-11-19T02:15:24;100685.10;;;27.97;26.80
37710;BME280;60223;34.854;-92.408;2023-11-19T02:46:55;100731.70;;;27.73;26.99
37710;BME280;60223;34.854;-92.408;2023-11-19T02:49:29;100731.07;;;27.73;26.97
37710;BME280;60223;34.854;-92.408;2023-11-19T02:51:47;100729.32;;;27.69;27.02
37710;BME280;60223;34.854;-92.408;2023-11-19T02:54:12;100727.15;;;27.75;26.91
37710;BME280;60223;34.854;-92.408;2023-11-19T02:56:42;100726.57;;;27.66;26.98
37710;BME280;60223;34.854;-92.408;2023-11-19T02:59:04;100724.35;;;27.44;27.74
37710;BME280;60223;34.854;-92.408;2023-11-19T03:01:26;100724.91;;;27.69;27.42
37710;BME280;60223;34.854;-92.408;2023-11-19T03:03:56;100729.07;;;27.48;27.50
37710;BME280;60223;34.854;-92.408;2023-11-19T03:06:33;100727.88;;;27.63;27.25
37710;BME280;60223;34.854;-92.408;2023-11-19T03:08:47;100729.24;;;27.67;27.15
37710;BME280;60223;34.854;-92.408;2023-11-19T03:11:24;100731.70;;;27.42;27.35
37710;BME280;60223;34.854;-92.408;2023-11-19T03:13:38;100731.81;;;27.63;27.09
37710;BME280;60223;34.854;-92.408;2023-11-19T03:16:04;100732.12;;;27.59;27.11
37710;BME280;60223;34.854;-92.408;2023-11-19T03:18:28;100734.54;;;27.54;27.11
37710;BME280;60223;34.854;-92.408;2023-11-19T03:20:54;100732.11;;;27.46;27.19
37710;BME280;60223;34.854;-92.408;2023-11-19T03:23:20;100735.68;;;27.43;27.22
37710;BME280;60223;34.854;-92.408;2023-11-19T03:25:48;100739.45;;;27.30;27.25
37710;BME280;60223;34.854;-92.408;2023-11-19T03:40:19;100738.16;;;26.91;27.91
37710;BME280;60223;34.854;-92.408;2023-11-19T03:42:48;100731.57;;;25.66;29.13
37710;BME280;60223;34.854;-92.408;2023-11-19T03:45:11;100733.81;;;25.68;29.26
37710;BME280;60223;34.854;-92.408;2023-11-19T03:47:36;100732.75;;;25.72;29.32
37710;BME280;60223;34.854;-92.408;2023-11-19T03:54:55;100729.74;;;26.12;29.08
37710;BME280;60223;34.854;-92.408;2023-11-19T03:57:20;100728.13;;;25.98;29.40
37710;BME280;60223;34.854;-92.408;2023-11-19T03:59:46;100730.53;;;26.59;28.79
37710;BME280;60223;34.854;-92.408;2023-11-19T04:02:12;100726.09;;;26.23;29.13
37710;BME280;60223;34.854;-92.408;2023-11-19T04:04:36;100721.90;;;26.24;29.09
37710;BME280;60223;34.854;-92.408;2023-11-19T04:07:01;100722.01;;;26.31;28.98
37710;BME280;60223;34.854;-92.408;2023-11-19T04:09:29;100724.02;;;26.16;29.07
37710;BME280;60223;34.854;-92.408;2023-11-19T04:11:55;100723.54;;;25.97;29.31
37710;BME280;60223;34.854;-92.408;2023-11-19T04:14:19;100722.25;;;25.85;29.16
37710;BME280;60223;34.854;-92.408;2023-11-19T04:16:45;100722.41;;;26.14;29.11
37710;BME280;60223;34.854;-92.408;2023-11-19T04:19:11;100725.26;;;25.99;28.99
37710;BME280;60223;34.854;-92.408;2023-11-19T04:21:39;100728.01;;;26.19;28.80
37710;BME280;60223;34.854;-92.408;2023-11-19T04:24:17;100732.70;;;26.20;29.23
37710;BME280;60223;34.854;-92.408;2023-11-19T04:26:28;100735.04;;;26.31;29.23
37710;BME280;60223;34.854;-92.408;2023-11-19T04:29:02;100734.31;;;25.82;29.53
37710;BME280;60223;34.854;-92.408;2023-11-19T04:31:19;100737.33;;;26.12;29.57
37710;BME280;60223;34.854;-92.408;2023-11-19T04:33:42;100738.85;;;25.94;29.70
37710;BME280;60223;34.854;-92.408;2023-11-19T04:45:52;100748.45;;;27.31;28.75
37710;BME280;60223;34.854;-92.408;2023-11-19T04:48:18;100743.07;;;26.35;29.51
37710;BME280;60223;34.854;-92.408;2023-11-19T04:50:44;100736.63;;;26.26;29.57
37710;BME280;60223;34.854;-92.408;2023-11-19T04:53:10;100732.12;;;26.22;29.59
37710;BME280;60223;34.854;-92.408;2023-11-19T04:55:36;100731.21;;;26.24;29.58
37710;BME280;60223;34.854;-92.408;2023-11-19T04:57:59;100727.84;;;25.79;29.44
37710;BME280;60223;34.854;-92.408;2023-11-19T05:00:27;100727.41;;;26.28;29.16
37710;BME280;60223;34.854;-92.408;2023-11-19T05:02:53;100724.37;;;27.53;28.33
37710;BME280;60223;34.854;-92.408;2023-11-19T05:05:19;100724.51;;;26.88;28.88
37710;BME280;60223;34.854;-92.408;2023-11-19T05:07:45;100724.19;;;26.99;28.84
37710;BME280;60223;34.854;-92.408;2023-11-19T05:10:11;100723.48;;;27.18;28.70
37710;BME280;60223;34.854;-92.408;2023-11-19T05:12:36;100722.16;;;27.26;28.62
37710;BME280;60223;34.854;-92.408;2023-11-19T05:15:01;100724.11;;;27.97;27.92
37710;BME280;60223;34.854;-92.408;2023-11-19T05:17:27;100722.67;;;28.04;27.69
37710;BME280;60223;34.854;-92.408;2023-11-19T05:19:54;100725.82;;;27.60;28.25
37710;BME280;60223;34.854;-92.408;2023-11-19T05:22:25;100718.28;;;27.97;27.98
37710;BME280;60223;34.854;-92.408;2023-11-19T05:24:45;100719.35;;;27.57;28.68
37710;BME280;60223;34.854;-92.408;2023-11-19T05:27:11;100715.94;;;27.06;28.81
37710;BME280;60223;34.854;-92.408;2023-11-19T05:29:35;100714.00;;;27.17;28.46
37710;BME280;60223;34.854;-92.408;2023-11-19T05:32:00;100711.53;;;27.23;28.39
37710;BME280;60223;34.854;-92.408;2023-11-19T05:34:27;100711.90;;;26.97;28.60
37710;BME280;60223;34.854;-92.408;2023-11-19T05:37:28;100714.42;;;26.84;28.72
37710;BME280;60223;34.854;-92.408;2023-11-19T05:39:23;100716.75;;;26.64;28.96
37710;BME280;60223;34.854;-92.408;2023-11-19T05:41:43;100713.44;;;26.57;29.19
37710;BME280;60223;34.854;-92.408;2023-11-19T05:44:09;100712.24;;;26.76;29.24
37710;BME280;60223;34.854;-92.408;2023-11-19T05:46:34;100710.84;;;26.26;29.23
37710;BME280;60223;34.854;-92.408;2023-11-19T05:49:08;100710.76;;;26.16;29.33
37710;BME280;60223;34.854;-92.408;2023-11-19T05:51:26;100707.91;;;26.10;29.36
37710;BME280;60223;34.854;-92.408;2023-11-19T05:53:51;100708.11;;;26.61;29.33
37710;BME280;60223;34.854;-92.408;2023-11-19T05:56:23;100707.27;;;26.60;29.30
37710;BME280;60223;34.854;-92.408;2023-11-19T05:58:45;100708.06;;;26.35;29.26
37710;BME280;60223;34.854;-92.408;2023-11-19T06:01:11;100704.49;;;26.20;29.20
37710;BME280;60223;34.854;-92.408;2023-11-19T06:03:39;100705.37;;;27.13;28.74
37710;BME280;60223;34.854;-92.408;2023-11-19T06:06:08;100699.56;;;27.36;28.65
37710;BME280;60223;34.854;-92.408;2023-11-19T06:08:42;100694.87;;;26.67;29.03
37710;BME280;60223;34.854;-92.408;2023-11-19T06:10:55;100690.45;;;26.36;29.32
37710;BME280;60223;34.854;-92.408;2023-11-19T06:13:25;100689.86;;;26.37;29.42
37710;BME280;60223;34.854;-92.408;2023-11-19T06:15:53;100692.36;;;26.70;28.67
37710;BME280;60223;34.854;-92.408;2023-11-19T06:18:10;100696.94;;;26.83;28.85
37710;BME280;60223;34.854;-92.408;2023-11-19T06:20:35;100701.13;;;26.70;28.97
37710;BME280;60223;34.854;-92.408;2023-11-19T06:22:58;100702.92;;;26.41;28.99
37710;BME280;60223;34.854;-92.408;2023-11-19T06:25:22;100704.22;;;26.63;29.03
37710;BME280;60223;34.854;-92.408;2023-11-19T06:27:50;100710.92;;;26.17;29.02
37710;BME280;60223;34.854;-92.408;2023-11-19T06:30:29;100711.65;;;26.35;29.06
37710;BME280;60223;34.854;-92.408;2023-11-19T06:32:45;100712.80;;;26.36;29.05
37710;BME280;60223;34.854;-92.408;2023-11-19T06:35:08;100706.43;;;26.17;28.95
37710;BME280;60223;34.854;-92.408;2023-11-19T06:37:34;100703.98;;;26.71;28.85
37710;BME280;60223;34.854;-92.408;2023-11-19T06:39:59;100705.84;;;27.35;28.26
37710;BME280;60223;34.854;-92.408;2023-11-19T06:42:22;100708.55;;;27.05;28.53
37710;BME280;60223;34.854;-92.408;2023-11-19T06:45:00;100706.02;;;27.20;28.22
37710;BME280;60223;34.854;-92.408;2023-11-19T06:47:17;100708.31;;;27.32;28.09
37710;BME280;60223;34.854;-92.408;2023-11-19T06:49:44;100703.77;;;28.34;27.20
37710;BME280;60223;34.854;-92.408;2023-11-19T06:52:16;100697.39;;;28.09;27.73
37710;BME280;60223;34.854;-92.408;2023-11-19T06:54:34;100695.46;;;27.06;28.49
37710;BME280;60223;34.854;-92.408;2023-11-19T06:56:59;100695.24;;;27.13;28.93
37710;BME280;60223;34.854;-92.408;2023-11-19T06:59:31;100697.07;;;26.97;28.75
37710;BME280;60223;34.854;-92.408;2023-11-19T07:02:07;100698.30;;;27.34;28.29
37710;BME280;60223;34.854;-92.408;2023-11-19T07:13:56;100690.76;;;26.16;29.18
37710;BME280;60223;34.854;-92.408;2023-11-19T07:16:24;100692.26;;;26.58;28.92
37710;BME280;60223;34.854;-92.408;2023-11-19T07:18:51;100690.40;;;26.54;28.96
37710;BME280;60223;34.854;-92.408;2023-11-19T07:21:15;100688.97;;;26.53;28.97
37710;BME280;60223;34.854;-92.408;2023-11-19T07:23:41;100688.41;;;26.73;29.00
37710;BME280;60223;34.854;-92.408;2023-11-19T07:26:08;100682.98;;;26.33;28.95
37710;BME280;60223;34.854;-92.408;2023-11-19T07:28:31;100684.93;;;26.50;28.94
37710;BME280;60223;34.854;-92.408;2023-11-19T07:30:58;100683.11;;;26.47;28.94
37710;BME280;60223;34.854;-92.408;2023-11-19T07:33:21;100685.25;;;26.50;28.85
37710;BME280;60223;34.854;-92.408;2023-11-19T07:35:48;100683.00;;;26.77;28.72
37710;BME280;60223;34.854;-92.408;2023-11-19T07:38:22;100684.82;;;26.48;28.92
37710;BME280;60223;34.854;-92.408;2023-11-19T07:40:41;100680.61;;;27.10;28.40
37710;BME280;60223;34.854;-92.408;2023-11-19T07:43:05;100674.22;;;26.89;28.51
37710;BME280;60223;34.854;-92.408;2023-11-19T07:45:31;100669.24;;;26.58;28.57
37710;BME280;60223;34.854;-92.408;2023-11-19T07:48:02;100668.76;;;26.95;28.54
37710;BME280;60223;34.854;-92.408;2023-11-19T07:50:21;100665.02;;;27.03;28.04
37710;BME280;60223;34.854;-92.408;2023-11-19T07:52:53;100662.49;;;26.67;28.34
37710;BME280;60223;34.854;-92.408;2023-11-19T07:55:10;100661.97;;;26.80;28.35
37710;BME280;60223;34.854;-92.408;2023-11-19T07:57:38;100661.87;;;26.80;28.29
37710;BME280;60223;34.854;-92.408;2023-11-19T08:00:06;100667.61;;;26.53;28.36
37710;BME280;60223;34.854;-92.408;2023-11-19T08:02:36;100666.73;;;26.37;28.29
37710;BME280;60223;34.854;-92.408;2023-11-19T08:04:54;100669.18;;;26.38;28.28
37710;BME280;60223;34.854;-92.408;2023-11-19T08:07:32;100671.18;;;26.62;28.21
37710;BME280;60223;34.854;-92.408;2023-11-19T08:09:49;100666.26;;;27.50;27.87
37710;BME280;60223;34.854;-92.408;2023-11-19T08:12:18;100664.73;;;27.31;28.07
37710;BME280;60223;34.854;-92.408;2023-11-19T08:14:39;100663.47;;;27.23;27.78
37710;BME280;60223;34.854;-92.408;2023-11-19T08:17:05;100663.43;;;27.19;27.79
37710;BME280;60223;34.854;-92.408;2023-11-19T08:19:31;100658.04;;;27.63;27.69
37710;BME280;60223;34.854;-92.408;2023-11-19T08:22:00;100660.79;;;28.58;26.60
37710;BME280;60223;34.854;-92.408;2023-11-19T08:26:58;100653.74;;;27.51;27.88
37710;BME280;60223;34.854;-92.408;2023-11-19T08:29:13;100648.62;;;26.87;28.14
37710;BME280;60223;34.854;-92.408;2023-11-19T08:31:39;100641.90;;;27.04;28.23
37710;BME280;60223;34.854;-92.408;2023-11-19T08:34:03;100641.08;;;27.68;27.41
37710;BME280;60223;34.854;-92.408;2023-11-19T08:36:31;100638.22;;;27.24;27.49
37710;BME280;60223;34.854;-92.408;2023-11-19T08:38:55;100635.17;;;27.34;27.65
37710;BME280;60223;34.854;-92.408;2023-11-19T08:41:23;100640.56;;;27.16;27.84
37710;BME280;60223;34.854;-92.408;2023-11-19T08:43:47;100636.78;;;27.04;27.96
37710;BME280;60223;34.854;-92.408;2023-11-19T08:46:15;100634.14;;;26.69;28.05
37710;BME280;60223;34.854;-92.408;2023-11-19T08:48:38;100632.92;;;26.68;28.05
37710;BME280;60223;34.854;-92.408;2023-11-19T08:51:05;100630.11;;;26.57;28.14
37710;BME280;60223;34.854;-92.408;2023-11-19T08:53:30;100631.19;;;26.57;28.12
37710;BME280;60223;34.854;-92.408;2023-11-19T08:55:55;100631.52;;;26.85;28.04
37710;BME280;60223;34.854;-92.408;2023-11-19T09:00:50;100631.91;;;26.61;28.00
37710;BME280;60223;34.854;-92.408;2023-11-19T09:03:21;100639.70;;;27.54;27.62
37710;BME280;60223;34.854;-92.408;2023-11-19T09:05:36;100643.26;;;26.77;28.14
37710;BME280;60223;34.854;-92.408;2023-11-19T09:08:12;100640.14;;;27.13;27.84
37710;BME280;60223;34.854;-92.408;2023-11-19T09:12:55;100638.00;;;26.63;28.28
37710;BME280;60223;34.854;-92.408;2023-11-19T09:15:22;100635.35;;;26.99;27.86
37710;BME280;60223;34.854;-92.408;2023-11-19T09:17:48;100633.67;;;26.97;27.55
37710;BME280;60223;34.854;-92.408;2023-11-19T09:20:12;100631.30;;;26.59;27.61
37710;BME280;60223;34.854;-92.408;2023-11-19T09:22:47;100635.02;;;26.78;27.63
37710;BME280;60223;34.854;-92.408;2023-11-19T09:25:03;100640.51;;;26.76;27.70
37710;BME280;60223;34.854;-92.408;2023-11-19T09:27:29;100640.06;;;26.63;27.79
37710;BME280;60223;34.854;-92.408;2023-11-19T09:30:02;100637.57;;;26.81;27.59
37710;BME280;60223;34.854;-92.408;2023-11-19T09:32:21;100639.11;;;26.57;27.53
37710;BME280;60223;34.854;-92.408;2023-11-19T09:34:44;100644.94;;;26.78;27.54
37710;BME280;60223;34.854;-92.408;2023-11-19T09:37:10;100647.28;;;26.80;27.50
37710;BME280;60223;34.854;-92.408;2023-11-19T09:39:44;100649.15;;;27.48;27.27
37710;BME280;60223;34.854;-92.408;2023-11-19T09:42:02;100645.35;;;26.94;27.42
37710;BME280;60223;34.854;-92.408;2023-11-19T09:44:34;100641.93;;;27.81;27.13
37710;BME280;60223;34.854;-92.408;2023-11-19T09:47:00;100651.27;;;27.82;26.74
37710;BME280;60223;34.854;-92.408;2023-11-19T09:51:53;100654.32;;;28.03;26.86
37710;BME280;60223;34.854;-92.408;2023-11-19T09:54:19;100655.22;;;27.12;27.44
37710;BME280;60223;34.854;-92.408;2023-11-19T09:56:37;100657.39;;;27.09;27.59
37710;BME280;60223;34.854;-92.408;2023-11-19T09:59:03;100652.45;;;27.15;27.76
37710;BME280;60223;34.854;-92.408;2023-11-19T10:01:32;100648.00;;;27.47;26.92
37710;BME280;60223;34.854;-92.408;2023-11-19T10:03:55;100642.95;;;27.32;26.91
37710;BME280;60223;34.854;-92.408;2023-11-19T10:06:20;100649.61;;;27.15;27.03
37710;BME280;60223;34.854;-92.408;2023-11-19T10:13:58;100661.13;;;26.68;27.64
37710;BME280;60223;34.854;-92.408;2023-11-19T10:16:13;100666.31;;;26.95;27.67
37710;BME280;60223;34.854;-92.408;2023-11-19T10:18:29;100670.21;;;26.85;27.70
37710;BME280;60223;34.854;-92.408;2023-11-19T10:21:08;100672.27;;;26.82;27.70
37710;BME280;60223;34.854;-92.408;2023-11-19T10:23:25;100674.06;;;26.87;27.60
37710;BME280;60223;34.854;-92.408;2023-11-19T10:25:41;100676.76;;;27.19;27.50
37710;BME280;60223;34.854;-92.408;2023-11-19T10:28:11;100681.51;;;26.92;27.51
37710;BME280;60223;34.854;-92.408;2023-11-19T10:30:36;100680.06;;;26.62;27.59
37710;BME280;60223;34.854;-92.408;2023-11-19T10:33:13;100678.04;;;27.08;27.53
37710;BME280;60223;34.854;-92.408;2023-11-19T10:35:52;100678.22;;;26.66;27.42
37710;BME280;60223;34.854;-92.408;2023-11-19T10:37:53;100684.76;;;27.04;27.42
37710;BME280;60223;34.854;-92.408;2023-11-19T10:40:23;100690.50;;;27.11;27.18
37710;BME280;60223;34.854;-92.408;2023-11-19T10:42:42;100694.71;;;27.19;27.55
37710;BME280;60223;34.854;-92.408;2023-11-19T10:45:23;100697.52;;;27.25;27.61
37710;BME280;60223;34.854;-92.408;2023-11-19T10:47:34;100693.81;;;27.14;27.99
37710;BME280;60223;34.854;-92.408;2023-11-19T10:50:00;100694.07;;;27.43;27.02
37710;BME280;60223;34.854;-92.408;2023-11-19T10:52:24;100689.93;;;26.59;27.10
37710;BME280;60223;34.854;-92.408;2023-11-19T10:54:53;100685.82;;;26.81;27.15
37710;BME280;60223;34.854;-92.408;2023-11-19T10:57:23;100675.89;;;26.61;27.31
37710;BME280;60223;34.854;-92.408;2023-11-19T11:00:02;100670.14;;;26.95;27.37
37710;BME280;60223;34.854;-92.408;2023-11-19T11:02:14;100668.40;;;26.99;27.14
37710;BME280;60223;34.854;-92.408;2023-11-19T11:04:43;100668.94;;;26.95;27.18
37710;BME280;60223;34.854;-92.408;2023-11-19T11:06:59;100663.69;;;27.47;26.77
37710;BME280;60223;34.854;-92.408;2023-11-19T11:09:25;100671.17;;;27.21;27.32
37710;BME280;60223;34.854;-92.408;2023-11-19T11:11:51;100670.40;;;27.71;27.06
37710;BME280;60223;34.854;-92.408;2023-11-19T11:16:43;100669.91;;;27.32;26.98
37710;BME280;60223;34.854;-92.408;2023-11-19T11:19:15;100670.00;;;28.41;26.02
37710;BME280;60223;34.854;-92.408;2023-11-19T11:21:33;100666.11;;;28.38;26.43
37710;BME280;60223;34.854;-92.408;2023-11-19T11:28:54;100673.02;;;27.14;27.18
37710;BME280;60223;34.854;-92.408;2023-11-19T11:31:23;100670.19;;;27.15;27.08
37710;BME280;60223;34.854;-92.408;2023-11-19T11:36:15;100679.54;;;27.50;26.38
37710;BME280;60223;34.854;-92.408;2023-11-19T11:38:30;100674.58;;;27.31;26.57
37710;BME280;60223;34.854;-92.408;2023-11-19T11:45:48;100669.48;;;26.83;26.92
37710;BME280;60223;34.854;-92.408;2023-11-19T11:48:15;100673.62;;;27.01;27.01
37710;BME280;60223;34.854;-92.408;2023-11-19T11:53:18;100678.75;;;26.87;26.55
37710;BME280;60223;34.854;-92.408;2023-11-19T11:55:35;100674.73;;;26.80;26.44
37710;BME280;60223;34.854;-92.408;2023-11-19T11:57:56;100679.03;;;27.13;26.52
37710;BME280;60223;34.854;-92.408;2023-11-19T12:00:26;100682.76;;;27.13;26.68
37710;BME280;60223;34.854;-92.408;2023-11-19T12:02:55;100678.34;;;27.25;26.86
37710;BME280;60223;34.854;-92.408;2023-11-19T12:05:14;100678.02;;;27.02;26.83
37710;BME280;60223;34.854;-92.408;2023-11-19T12:07:39;100681.30;;;26.78;26.86
37710;BME280;60223;34.854;-92.408;2023-11-19T12:10:10;100682.95;;;27.13;26.79
37710;BME280;60223;34.854;-92.408;2023-11-19T12:12:31;100682.72;;;27.06;26.53
37710;BME280;60223;34.854;-92.408;2023-11-19T12:15:07;100687.64;;;27.20;25.78
37710;BME280;60223;34.854;-92.408;2023-11-19T12:17:38;100689.74;;;26.96;25.91
37710;BME280;60223;34.854;-92.408;2023-11-19T12:19:48;100696.81;;;26.60;26.08
37710;BME280;60223;34.854;-92.408;2023-11-19T12:22:14;100703.08;;;26.82;26.29
37710;BME280;60223;34.854;-92.408;2023-11-19T12:27:04;100694.67;;;27.16;25.20
37710;BME280;60223;34.854;-92.408;2023-11-19T12:31:58;100689.19;;;27.59;25.89
37710;BME280;60223;34.854;-92.408;2023-11-19T12:34:18;100687.06;;;27.06;26.37
37710;BME280;60223;34.854;-92.408;2023-11-19T12:36:46;100685.21;;;27.27;26.32
37710;BME280;60223;34.854;-92.408;2023-11-19T12:39:12;100678.97;;;27.18;26.35
37710;BME280;60223;34.854;-92.408;2023-11-19T12:41:49;100672.33;;;27.63;26.19
37710;BME280;60223;34.854;-92.408;2023-11-19T12:44:10;100671.64;;;27.71;26.19
37710;BME280;60223;34.854;-92.408;2023-11-19T12:46:29;100674.98;;;27.51;26.30
37710;BME280;60223;34.854;-92.408;2023-11-19T12:48:56;100676.98;;;27.62;26.25
37710;BME280;60223;34.854;-92.408;2023-11-19T12:51:36;100675.05;;;28.19;25.78
37710;BME280;60223;34.854;-92.408;2023-11-19T12:53:53;100674.53;;;27.83;26.28
37710;BME280;60223;34.854;-92.408;2023-11-19T12:56:12;100670.97;;;27.70;26.16
37710;BME280;60223;34.854;-92.408;2023-11-19T12:58:37;100674.03;;;27.89;26.09
37710;BME280;60223;34.854;-92.408;2023-11-19T13:01:15;100672.63;;;27.90;26.39
37710;BME280;60223;34.854;-92.408;2023-11-19T13:03:37;100667.58;;;27.72;26.34
37710;BME280;60223;34.854;-92.408;2023-11-19T13:08:18;100672.22;;;27.63;26.10
37710;BME280;60223;34.854;-92.408;2023-11-19T13:10:51;100673.91;;;27.69;26.20
37710;BME280;60223;34.854;-92.408;2023-11-19T13:13:12;100679.16;;;27.94;26.17
37710;BME280;60223;34.854;-92.408;2023-11-19T13:15:34;100688.89;;;27.26;26.17
37710;BME280;60223;34.854;-92.408;2023-11-19T13:18:01;100695.75;;;28.29;26.21
37710;BME280;60223;34.854;-92.408;2023-11-19T13:20:31;100708.96;;;27.37;26.96
37710;BME280;60223;34.854;-92.408;2023-11-19T13:22:57;100719.45;;;27.21;26.91
37710;BME280;60223;34.854;-92.408;2023-11-19T13:25:19;100722.36;;;27.27;27.42
37710;BME280;60223;34.854;-92.408;2023-11-19T13:27:42;100719.44;;;27.17;27.62
37710;BME280;60223;34.854;-92.408;2023-11-19T13:30:14;100719.21;;;27.84;26.90
37710;BME280;60223;34.854;-92.408;2023-11-19T13:32:43;100719.65;;;27.36;26.77
37710;BME280;60223;34.854;-92.408;2023-11-19T13:34:59;100718.07;;;27.39;26.89
37710;BME280;60223;34.854;-92.408;2023-11-19T13:37:25;100720.54;;;27.54;27.16
37710;BME280;60223;34.854;-92.408;2023-11-19T13:39:51;100722.18;;;27.37;27.07
37710;BME280;60223;34.854;-92.408;2023-11-19T13:42:17;100730.90;;;27.38;26.75
37710;BME280;60223;34.854;-92.408;2023-11-19T13:44:43;100735.98;;;28.09;26.99
37710;BME280;60223;34.854;-92.408;2023-11-19T13:47:09;100733.92;;;27.09;26.80
37710;BME280;60223;34.854;-92.408;2023-11-19T13:49:32;100731.43;;;27.47;26.56
37710;BME280;60223;34.854;-92.408;2023-11-19T13:51:59;100727.38;;;27.06;26.34
37710;BME280;60223;34.854;-92.408;2023-11-19T13:54:30;100723.64;;;27.01;25.94
37710;BME280;60223;34.854;-92.408;2023-11-19T13:56:55;100727.35;;;27.52;25.79
37710;BME280;60223;34.854;-92.408;2023-11-19T13:59:13;100727.42;;;26.88;25.86
37710;BME280;60223;34.854;-92.408;2023-11-19T14:01:41;100717.87;;;27.15;25.75
37710;BME280;60223;34.854;-92.408;2023-11-19T14:04:05;100719.12;;;26.98;26.35
37710;BME280;60223;34.854;-92.408;2023-11-19T14:06:39;100720.51;;;27.37;26.28
37710;BME280;60223;34.854;-92.408;2023-11-19T14:08:58;100724.21;;;28.03;25.84
37710;BME280;60223;34.854;-92.408;2023-11-19T14:11:26;100726.91;;;27.17;26.19
37710;BME280;60223;34.854;-92.408;2023-11-19T14:14:04;100727.58;;;27.06;26.13
37710;BME280;60223;34.854;-92.408;2023-11-19T14:16:16;100734.65;;;27.50;25.93
37710;BME280;60223;34.854;-92.408;2023-11-19T14:18:40;100744.92;;;27.26;25.85
37710;BME280;60223;34.854;-92.408;2023-11-19T14:21:06;100753.02;;;26.97;25.99
37710;BME280;60223;34.854;-92.408;2023-11-19T14:23:32;100749.88;;;26.98;25.72